Time;durP1;ratioP1;P1;durP2;ratioP2;P2;SDS_P1;SDS_P2;PMS_P1;PMS_P2;Temp;Humidity;BMP_temperature;BMP_pressure;BME280_temperature;BME280_humidity;BME280_pressure;Samples;Min_cycle;Max_cycle;Signal;HPM_P1;HPM_P2
2022/05/09 00:00:29;;;;;;;23.77;14.60;;;;;;;20.63;46.47;102935.06;5062310;28;20051;-50
2022/05/09 00:02:56;;;;;;;32.92;15.45;;;;;;;20.61;47.28;102943.25;5043729;28;20049;-51
2022/05/09 00:05:26;;;;;;;24.80;14.50;;;;;;;20.60;46.83;102938.84;5058620;28;20127;-50
2022/05/09 00:07:53;;;;;;;27.35;14.77;;;;;;;20.61;46.83;102928.91;5052714;28;20505;-47
2022/05/09 00:10:22;;;;;;;24.77;14.95;;;;;;;20.57;46.89;102931.00;5056758;28;20052;-51
2022/05/09 00:12:49;;;;;;;25.08;14.85;;;;;;;20.58;46.79;102927.34;5059967;28;20055;-48
2022/05/09 00:15:16;;;;;;;23.50;14.35;;;;;;;20.58;46.72;102934.53;5049158;28;20395;-49
2022/05/09 00:17:45;;;;;;;24.15;14.25;;;;;;;20.55;47.15;102929.41;5055248;28;20059;-47
2022/05/09 00:20:17;;;;;;;26.23;14.02;;;;;;;20.54;47.14;102928.53;5060905;28;20053;-52
2022/05/09 00:22:54;;;;;;;22.17;12.73;;;;;;;20.52;46.92;102925.09;5063124;28;20135;-46
2022/05/09 00:25:25;;;;;;;22.77;14.13;;;;;;;20.52;47.34;102925.09;5031592;28;20134;-46
2022/05/09 00:27:52;;;;;;;22.70;13.45;;;;;;;20.52;47.24;102925.09;5036939;28;20421;-50
2022/05/09 00:30:19;;;;;;;25.70;13.10;;;;;;;20.51;47.38;102928.78;5044381;28;20037;-52
2022/05/09 00:32:46;;;;;;;25.40;13.10;;;;;;;20.49;47.32;102921.78;5037587;28;20048;-50
2022/05/09 00:35:13;;;;;;;22.98;13.25;;;;;;;20.48;47.42;102923.59;5039840;28;20036;-51
2022/05/09 00:37:40;;;;;;;23.45;13.20;;;;;;;20.47;47.58;102913.81;5031860;28;20141;-47
2022/05/09 00:40:10;;;;;;;22.15;12.70;;;;;;;20.45;47.41;102913.91;5037889;28;20052;-50
2022/05/09 00:42:37;;;;;;;19.38;12.07;;;;;;;20.45;47.43;102907.66;5036047;28;20040;-46
2022/05/09 00:45:04;;;;;;;21.80;12.27;;;;;;;20.44;47.06;102916.72;5042635;28;20049;-48
2022/05/09 00:47:30;;;;;;;19.30;11.57;;;;;;;20.42;46.98;102911.47;5036328;28;20420;-49
2022/05/09 00:50:00;;;;;;;24.20;12.00;;;;;;;20.42;47.37;102913.28;5039061;28;20101;-47
2022/05/09 00:52:38;;;;;;;20.60;12.63;;;;;;;20.39;47.25;102909.00;5037756;28;20370;-49
2022/05/09 00:55:11;;;;;;;20.00;11.73;;;;;;;20.38;47.65;102907.31;5035830;28;20053;-48
2022/05/09 00:57:52;;;;;;;18.48;11.55;;;;;;;20.38;47.57;102909.13;5038262;28;20047;-47
2022/05/09 01:00:23;;;;;;;21.02;12.45;;;;;;;20.35;47.71;102904.00;5030355;28;20041;-50
2022/05/09 01:03:12;;;;;;;17.17;11.13;;;;;;;20.34;47.19;102900.44;5038243;28;20159;-50
2022/05/09 01:05:41;;;;;;;18.38;10.93;;;;;;;20.33;47.44;102897.84;5032623;28;20108;-48
2022/05/09 01:08:08;;;;;;;20.90;11.38;;;;;;;20.32;47.31;102902.38;5028532;28;20081;-46
2022/05/09 01:10:38;;;;;;;18.27;10.93;;;;;;;20.30;47.65;102907.03;5031500;28;20069;-48
2022/05/09 01:13:08;;;;;;;21.75;10.73;;;;;;;20.30;47.48;102904.34;5044098;28;20332;-46
2022/05/09 01:15:35;;;;;;;22.08;11.15;;;;;;;20.29;47.84;102905.31;5044085;28;20363;-49
2022/05/09 01:18:09;;;;;;;18.67;10.68;;;;;;;20.27;47.83;102898.34;5044642;28;20389;-48
2022/05/09 01:20:36;;;;;;;17.48;10.57;;;;;;;20.28;47.44;102910.81;5045307;28;20064;-45
2022/05/09 01:23:03;;;;;;;18.95;10.77;;;;;;;20.26;47.48;102900.19;5049335;28;20044;-50
2022/05/09 01:25:32;;;;;;;23.17;10.20;;;;;;;20.25;47.99;102898.44;5063556;28;20072;-46
2022/05/09 01:27:59;;;;;;;19.83;11.02;;;;;;;20.24;48.08;102898.56;5063265;28;20048;-48
2022/05/09 01:30:37;;;;;;;17.50;9.57;;;;;;;20.21;47.39;102895.13;5067148;28;20319;-48
2022/05/09 01:33:11;;;;;;;16.73;9.32;;;;;;;20.20;47.93;102895.25;5064554;28;20055;-50
2022/05/09 01:36:00;;;;;;;15.68;9.23;;;;;;;20.19;48.10;102891.69;5062078;28;20068;-46
2022/05/09 01:38:29;;;;;;;15.90;8.90;;;;;;;20.19;47.65;102888.16;5066427;28;20392;-52
2022/05/09 01:40:56;;;;;;;17.80;10.25;;;;;;;20.18;48.08;102891.81;5065629;28;20045;-48
2022/05/09 01:43:38;;;;;;;16.63;8.68;;;;;;;20.15;48.19;102887.53;5062237;28;20424;-50
2022/05/09 01:46:14;;;;;;;15.68;9.23;;;;;;;20.16;47.83;102885.69;5062678;28;20087;-51
2022/05/09 01:51:27;;;;;;;14.30;8.15;;;;;;;20.13;47.74;102892.16;5061797;28;20052;-50
2022/05/09 01:53:54;;;;;;;15.35;9.40;;;;;;;20.12;48.10;102882.38;5064949;28;20055;-46
2022/05/09 01:56:30;;;;;;;15.45;8.07;;;;;;;20.10;47.66;102876.25;5063052;28;20148;-48
2022/05/09 01:58:58;;;;;;;15.75;9.18;;;;;;;20.10;48.39;102876.25;5066104;28;20048;-50
2022/05/09 02:01:27;;;;;;;14.13;7.90;;;;;;;20.11;47.66;102877.13;5061958;28;20123;-48
2022/05/09 02:03:54;;;;;;;13.50;7.68;;;;;;;20.08;47.90;102880.88;5064604;28;20064;-47
2022/05/09 02:06:21;;;;;;;14.48;8.25;;;;;;;20.07;48.03;102876.50;5065174;28;20055;-51
2022/05/09 02:08:48;;;;;;;15.55;8.85;;;;;;;20.07;47.91;102872.94;5066365;28;20053;-47
2022/05/09 02:11:15;;;;;;;14.02;7.72;;;;;;;20.06;48.28;102865.81;5063946;28;20053;-49
2022/05/09 02:13:41;;;;;;;15.07;7.78;;;;;;;20.02;47.79;102877.78;5066108;28;20043;-50
2022/05/09 02:16:08;;;;;;;14.55;7.57;;;;;;;20.02;48.46;102873.31;5063929;28;20053;-50
2022/05/09 02:18:35;;;;;;;12.90;7.85;;;;;;;20.02;47.90;102880.50;5063859;28;20511;-46
2022/05/09 02:21:03;;;;;;;15.38;7.88;;;;;;;20.01;48.10;102863.50;5066292;28;20042;-46
2022/05/09 02:23:31;;;;;;;13.15;7.65;;;;;;;20.01;48.12;102868.00;5066196;28;20147;-49
2022/05/09 02:25:57;;;;;;;12.85;7.30;;;;;;;20.01;47.95;102870.72;5064306;28;20052;-47
2022/05/09 02:28:24;;;;;;;12.00;7.18;;;;;;;20.00;47.63;102874.38;5064418;28;20055;-48
2022/05/09 02:30:51;;;;;;;12.05;6.30;;;;;;;19.99;48.30;102870.84;5060699;28;20128;-48
2022/05/09 02:33:17;;;;;;;14.07;7.00;;;;;;;19.99;47.96;102868.16;5063035;28;20048;-49
2022/05/09 02:35:44;;;;;;;13.20;6.88;;;;;;;19.99;48.08;102867.28;5064891;28;20050;-50
2022/05/09 02:38:11;;;;;;;12.45;6.97;;;;;;;20.00;48.14;102866.31;5063344;28;20832;-50
2022/05/09 02:40:37;;;;;;;12.05;6.53;;;;;;;20.00;48.22;102869.00;5064085;28;20040;-47
2022/05/09 02:43:04;;;;;;;12.90;7.07;;;;;;;20.02;47.53;102867.91;5063001;28;20048;-49
2022/05/09 02:45:31;;;;;;;10.68;6.75;;;;;;;20.04;47.74;102863.25;5065085;28;20045;-45
2022/05/09 02:47:57;;;;;;;11.70;6.32;;;;;;;20.03;47.79;102863.38;5066828;28;20040;-48
2022/05/09 02:50:25;;;;;;;13.63;7.43;;;;;;;20.04;47.60;102857.88;5058998;28;20416;-49
2022/05/09 02:52:53;;;;;;;10.95;6.45;;;;;;;20.05;47.58;102861.41;5063654;28;20040;-48
2022/05/09 02:55:21;;;;;;;11.82;6.85;;;;;;;20.04;47.47;102849.81;5065958;28;20055;-47
2022/05/09 02:57:48;;;;;;;11.63;6.30;;;;;;;20.05;48.04;102850.66;5061723;28;20136;-46
2022/05/09 03:00:23;;;;;;;12.75;6.25;;;;;;;20.06;48.11;102850.56;5065409;28;20044;-50
2022/05/09 03:05:38;;;;;;;10.15;5.72;;;;;;;20.09;48.14;102852.13;5063153;28;20055;-51
2022/05/09 03:08:06;;;;;;;11.75;6.13;;;;;;;20.10;47.74;102852.03;5060933;28;20447;-47
2022/05/09 03:10:32;;;;;;;12.40;5.43;;;;;;;20.08;47.34;102850.44;5060975;28;20146;-50
2022/05/09 03:13:00;;;;;;;9.65;5.72;;;;;;;20.08;47.25;102842.34;5062565;28;20052;-45
2022/05/09 03:15:33;;;;;;;10.50;5.28;;;;;;;20.07;47.04;102843.34;5061594;28;20090;-50
2022/05/09 03:17:59;;;;;;;10.68;5.50;;;;;;;20.07;47.06;102846.88;5061406;28;20128;-46
2022/05/09 03:20:26;;;;;;;8.55;5.10;;;;;;;20.08;47.51;102839.66;5060110;28;20053;-46
2022/05/09 03:22:53;;;;;;;10.13;5.78;;;;;;;20.09;47.39;102836.84;5066470;28;20036;-49
2022/05/09 03:25:20;;;;;;;9.48;5.43;;;;;;;20.09;47.59;102838.66;5064160;28;20052;-46
2022/05/09 03:27:46;;;;;;;8.57;5.03;;;;;;;20.07;47.40;102836.09;5062838;28;20037;-46
2022/05/09 03:30:15;;;;;;;10.60;4.95;;;;;;;20.05;47.48;102832.66;5061163;28;20036;-48
2022/05/09 03:32:41;;;;;;;10.55;4.90;;;;;;;20.04;47.89;102828.25;5063821;28;20052;-46
2022/05/09 03:35:09;;;;;;;10.50;5.10;;;;;;;20.03;47.70;102833.78;5062868;28;20080;-48
2022/05/09 03:37:37;;;;;;;13.32;5.00;;;;;;;20.02;47.46;102824.84;5059564;28;20063;-47
2022/05/09 03:40:05;;;;;;;8.93;5.50;;;;;;;20.04;48.14;102828.25;5062225;28;20378;-47
2022/05/09 03:42:33;;;;;;;9.88;5.10;;;;;;;20.05;47.88;102829.97;5064347;28;20072;-49
2022/05/09 03:45:00;;;;;;;8.55;4.93;;;;;;;20.07;47.22;102829.88;5060207;28;20063;-47
2022/05/09 03:47:26;;;;;;;10.43;4.78;;;;;;;20.09;47.63;102827.91;5064399;28;20139;-47
2022/05/09 03:49:55;;;;;;;10.23;4.97;;;;;;;20.09;47.19;102830.59;5064455;28;20039;-49
2022/05/09 03:52:22;;;;;;;7.72;4.40;;;;;;;20.08;47.57;102828.88;5057582;28;20416;-49
2022/05/09 03:54:49;;;;;;;8.55;4.63;;;;;;;20.08;48.02;102823.50;5060935;28;20048;-52
2022/05/09 03:57:16;;;;;;;14.77;4.80;;;;;;;20.06;47.72;102820.94;5060033;28;20048;-47
2022/05/09 03:59:42;;;;;;;10.65;5.22;;;;;;;20.07;48.05;102824.50;5062671;28;20488;-47
2022/05/09 04:02:10;;;;;;;12.63;5.78;;;;;;;20.08;47.60;102818.97;5064198;28;20048;-45
2022/05/09 04:04:37;;;;;;;17.00;5.78;;;;;;;20.08;48.15;102816.28;5065940;28;20047;-46
2022/05/09 04:07:04;;;;;;;15.82;5.65;;;;;;;20.08;47.33;102818.97;5065808;28;20083;-46
2022/05/09 04:09:31;;;;;;;18.02;6.00;;;;;;;20.07;47.49;102817.25;5064625;28;20320;-47
2022/05/09 04:11:58;;;;;;;15.27;6.28;;;;;;;20.04;47.83;102817.50;5065713;28;20061;-50
2022/05/09 04:17:14;;;;;;;12.10;5.50;;;;;;;19.99;47.43;102813.47;5063934;28;20036;-47
2022/05/09 04:19:41;;;;;;;19.02;6.80;;;;;;;19.99;47.57;102816.16;5061869;28;20055;-50
2022/05/09 04:22:07;;;;;;;13.68;5.78;;;;;;;19.97;47.29;102811.72;5064383;28;20044;-47
2022/05/09 04:24:34;;;;;;;12.30;5.65;;;;;;;19.97;47.52;102808.16;5069217;28;20071;-45
2022/05/09 04:27:01;;;;;;;13.50;5.68;;;;;;;19.96;47.90;102806.47;5061999;28;20580;-47
2022/05/09 04:29:28;;;;;;;12.88;5.55;;;;;;;19.95;48.04;102811.00;5065826;28;20045;-47
2022/05/09 04:31:55;;;;;;;13.45;5.60;;;;;;;19.95;47.74;102810.13;5066417;28;20044;-49
2022/05/09 04:34:21;;;;;;;15.80;5.40;;;;;;;19.93;47.50;102806.69;5065825;28;20043;-51
2022/05/09 04:36:48;;;;;;;12.48;5.22;;;;;;;19.93;47.91;102799.47;5061576;28;20068;-51
2022/05/09 04:39:16;;;;;;;16.13;5.72;;;;;;;19.93;47.37;102804.84;5066958;28;20328;-49
2022/05/09 04:41:42;;;;;;;12.55;6.38;;;;;;;19.93;47.69;102801.31;5071724;28;20120;-50
2022/05/09 04:44:09;;;;;;;12.70;6.57;;;;;;;19.92;47.85;102804.97;5070439;28;20131;-49
2022/05/09 04:46:35;;;;;;;12.48;6.28;;;;;;;19.92;47.74;102803.16;5069269;28;20419;-50
2022/05/09 04:49:03;;;;;;;12.93;6.13;;;;;;;19.93;47.51;102798.63;5065194;28;20049;-48
2022/05/09 04:51:29;;;;;;;15.02;6.03;;;;;;;19.94;47.24;102798.53;5070715;28;20051;-49
2022/05/09 04:53:56;;;;;;;13.25;6.45;;;;;;;19.95;47.44;102799.38;5073163;28;20132;-52
2022/05/09 04:56:22;;;;;;;12.25;5.55;;;;;;;19.95;47.80;102797.53;5072704;28;20428;-48
2022/05/09 04:58:49;;;;;;;11.50;6.18;;;;;;;19.98;47.88;102791.06;5071636;28;20047;-47
2022/05/09 05:01:16;;;;;;;12.15;5.65;;;;;;;20.00;47.30;102786.41;5070188;28;20387;-47
2022/05/09 05:03:42;;;;;;;13.98;6.57;;;;;;;20.01;47.88;102782.72;5069569;28;20140;-50
2022/05/09 05:06:09;;;;;;;11.63;6.20;;;;;;;20.02;47.53;102789.84;5070490;28;20041;-45
2022/05/09 05:08:35;;;;;;;12.35;5.95;;;;;;;20.00;47.29;102786.41;5070444;28;20044;-46
2022/05/09 05:11:03;;;;;;;14.00;6.28;;;;;;;20.01;47.58;102789.94;5070914;28;20040;-50
2022/05/09 05:13:32;;;;;;;11.73;6.30;;;;;;;20.00;47.32;102789.09;5068519;28;20040;-50
2022/05/09 05:16:00;;;;;;;12.82;6.05;;;;;;;20.02;47.36;102797.94;5069025;28;20147;-46
2022/05/09 05:18:28;;;;;;;11.10;6.03;;;;;;;20.01;47.52;102795.34;5070711;28;20056;-50
2022/05/09 05:20:55;;;;;;;14.30;6.32;;;;;;;19.98;47.21;102788.38;5066567;28;20044;-48
2022/05/09 05:23:22;;;;;;;12.13;5.95;;;;;;;19.96;47.23;102782.25;5073310;28;20044;-49
2022/05/09 05:25:49;;;;;;;13.30;5.93;;;;;;;19.94;47.44;102794.97;5066305;28;20053;-47
2022/05/09 05:28:16;;;;;;;10.35;6.05;;;;;;;19.92;47.64;102786.16;5068356;28;20129;-47
2022/05/09 05:30:43;;;;;;;13.20;5.97;;;;;;;19.91;47.01;102785.28;5067622;28;20041;-50
2022/05/09 05:33:10;;;;;;;12.77;6.85;;;;;;;19.92;46.89;102788.84;5070734;28;20056;-45
2022/05/09 05:35:37;;;;;;;11.52;5.93;;;;;;;19.89;47.04;102784.53;5072414;28;20044;-47
2022/05/09 05:38:05;;;;;;;12.98;6.07;;;;;;;19.89;47.12;102786.38;5058871;28;20509;-48
2022/05/09 05:40:32;;;;;;;15.40;6.82;;;;;;;19.89;47.27;102787.22;5063738;28;20043;-46
2022/05/09 05:42:59;;;;;;;13.60;6.07;;;;;;;19.89;47.78;102783.69;5066677;28;20128;-51
2022/05/09 05:45:25;;;;;;;11.25;6.28;;;;;;;19.89;47.17;102781.00;5062674;28;20139;-51
2022/05/09 05:47:52;;;;;;;10.70;6.15;;;;;;;19.88;47.14;102776.59;5056896;28;20049;-51
2022/05/09 05:50:21;;;;;;;12.35;6.40;;;;;;;19.88;47.10;102785.53;5061613;28;20045;-50
2022/05/09 05:52:48;;;;;;;13.00;6.10;;;;;;;19.89;47.43;102784.53;5072555;28;20044;-47
2022/05/09 05:55:18;;;;;;;13.18;5.88;;;;;;;19.88;47.64;102782.84;5070393;28;20052;-48
2022/05/09 05:57:45;;;;;;;11.70;5.88;;;;;;;19.89;47.61;102786.38;5064644;28;20121;-49
2022/05/09 06:00:21;;;;;;;11.52;6.72;;;;;;;19.93;47.42;102787.84;5071185;28;20270;-47
2022/05/09 06:02:49;;;;;;;12.63;6.43;;;;;;;19.97;47.18;102794.72;5071517;28;20127;-47
2022/05/09 06:05:18;;;;;;;11.70;5.43;;;;;;;20.01;47.52;102789.94;5069452;28;20059;-47
2022/05/09 06:07:46;;;;;;;10.80;6.00;;;;;;;20.01;47.24;102798.88;5071353;28;20045;-46
2022/05/09 06:10:15;;;;;;;14.75;6.25;;;;;;;20.02;46.64;102795.25;5067554;28;20040;-47
2022/05/09 06:12:42;;;;;;;10.43;5.70;;;;;;;20.01;47.06;102790.81;5062574;28;20053;-51
2022/05/09 06:15:24;;;;;;;8.05;4.88;;;;;;;20.02;46.68;102792.53;5067932;28;20311;-47
2022/05/09 06:17:52;;;;;;;14.18;5.97;;;;;;;20.03;46.44;102794.25;5070480;28;20074;-48
2022/05/09 06:20:20;;;;;;;12.02;5.70;;;;;;;20.05;47.09;102781.50;5069239;28;20095;-47
2022/05/09 06:22:46;;;;;;;10.45;5.47;;;;;;;20.07;46.61;102782.28;5069119;28;20643;-48
2022/05/09 06:25:16;;;;;;;12.10;5.57;;;;;;;20.07;46.86;102784.97;5067293;28;20052;-49
2022/05/09 06:27:42;;;;;;;10.98;5.90;;;;;;;20.08;47.05;102783.97;5067978;28;20045;-50
2022/05/09 06:30:12;;;;;;;9.95;5.80;;;;;;;20.09;46.69;102782.13;5069922;28;20391;-49
2022/05/09 06:32:39;;;;;;;12.27;5.80;;;;;;;20.09;46.95;102784.81;5067775;28;20071;-47
2022/05/09 06:35:09;;;;;;;10.43;5.53;;;;;;;20.09;47.24;102787.53;5063122;28;20140;-49
2022/05/09 06:37:38;;;;;;;12.25;6.25;;;;;;;20.10;46.99;102792.81;5060629;28;20063;-49
2022/05/09 06:40:07;;;;;;;10.02;5.72;;;;;;;20.12;46.55;102793.53;5068506;28;20051;-49
2022/05/09 06:42:35;;;;;;;10.90;5.28;;;;;;;20.15;46.56;102784.38;5059845;28;20067;-48
2022/05/09 06:45:02;;;;;;;10.52;5.18;;;;;;;20.17;46.53;102791.31;5060692;28;20532;-48
2022/05/09 06:47:29;;;;;;;10.95;5.70;;;;;;;20.18;46.64;102790.38;5061397;28;20045;-51
2022/05/09 06:50:03;;;;;;;11.77;5.70;;;;;;;20.19;46.33;102784.00;5062031;28;20051;-49
2022/05/09 06:52:30;;;;;;;10.75;5.60;;;;;;;20.22;46.16;102785.56;5061186;28;20044;-47
2022/05/09 06:54:57;;;;;;;8.90;4.72;;;;;;;20.22;46.20;102782.88;5060380;28;20052;-50
2022/05/09 06:57:23;;;;;;;10.55;5.18;;;;;;;20.23;46.57;102786.47;5061313;28;20055;-47
2022/05/09 06:59:50;;;;;;;9.63;5.45;;;;;;;20.25;45.91;102787.19;5061121;28;20143;-47
2022/05/09 07:02:17;;;;;;;9.55;4.85;;;;;;;20.25;46.16;102787.19;5061987;28;21326;-47
2022/05/09 07:04:43;;;;;;;11.43;5.07;;;;;;;20.25;46.11;102785.34;5061122;28;20668;-50
2022/05/09 07:07:10;;;;;;;10.77;5.55;;;;;;;20.27;46.59;102791.47;5064650;28;20127;-51
2022/05/09 07:09:36;;;;;;;7.10;4.15;;;;;;;20.28;45.89;102792.31;5068496;28;20052;-47
2022/05/09 07:12:03;;;;;;;9.80;4.78;;;;;;;20.29;46.20;102791.34;5061005;28;20086;-47
2022/05/09 07:14:30;;;;;;;10.85;5.07;;;;;;;20.29;45.55;102783.25;5062986;28;20179;-47
2022/05/09 07:16:56;;;;;;;11.43;5.03;;;;;;;20.30;46.22;102780.47;5061347;28;20064;-48
2022/05/09 07:19:23;;;;;;;9.43;4.45;;;;;;;20.31;46.04;102781.31;5069139;28;20040;-47
2022/05/09 07:21:49;;;;;;;9.00;4.57;;;;;;;20.32;45.60;102785.72;5068671;28;20048;-48
2022/05/09 07:24:16;;;;;;;10.38;4.97;;;;;;;20.31;46.05;102784.88;5059901;28;20048;-48
2022/05/09 07:26:43;;;;;;;12.10;4.68;;;;;;;20.31;45.87;102784.88;5066352;28;20416;-52
2022/05/09 07:29:09;;;;;;;10.40;4.78;;;;;;;20.30;45.32;102785.84;5065407;28;20056;-48
2022/05/09 07:31:36;;;;;;;9.77;4.95;;;;;;;20.33;45.24;102784.72;5064883;28;20128;-49
2022/05/09 07:34:02;;;;;;;9.85;5.00;;;;;;;20.33;45.28;102787.44;5066932;28;20055;-50
2022/05/09 07:36:29;;;;;;;10.27;4.75;;;;;;;20.35;45.91;102790.88;5067010;28;20040;-51
2022/05/09 07:38:56;;;;;;;10.40;4.70;;;;;;;20.36;45.39;102792.59;5061254;28;20047;-50
2022/05/09 07:41:22;;;;;;;7.90;4.55;;;;;;;20.36;45.83;102796.13;5059800;28;20045;-50
2022/05/09 07:43:50;;;;;;;8.27;4.13;;;;;;;20.37;45.42;102796.97;5060779;28;20127;-47
2022/05/09 07:46:16;;;;;;;10.80;4.97;;;;;;;20.38;45.63;102785.22;5060715;28;20033;-49
2022/05/09 07:49:03;;;;;;;11.57;4.65;;;;;;;20.40;45.94;102785.97;5059521;28;20052;-50
2022/05/09 07:51:29;;;;;;;8.90;4.88;;;;;;;20.39;45.40;102785.13;5059239;28;20047;-50
2022/05/09 07:53:56;;;;;;;7.65;4.18;;;;;;;20.41;45.82;102784.97;5059348;28;21464;-52
2022/05/09 07:56:23;;;;;;;9.45;4.10;;;;;;;20.40;45.91;102783.28;5060039;28;20040;-52
2022/05/09 07:58:49;;;;;;;5.70;3.50;;;;;;;20.41;45.25;102783.16;5061747;28;22288;-46
2022/05/09 08:01:16;;;;;;;9.07;4.60;;;;;;;20.40;44.99;102781.44;5062094;28;20074;-51
2022/05/09 08:03:43;;;;;;;9.20;4.28;;;;;;;20.40;45.51;102781.44;5060586;28;20044;-50
2022/05/09 08:06:10;;;;;;;7.72;4.30;;;;;;;20.41;45.07;102784.97;5060738;28;20048;-51
2022/05/09 08:08:38;;;;;;;9.23;4.25;;;;;;;20.42;44.81;102786.69;5058929;28;20075;-49
2022/05/09 08:11:16;;;;;;;7.47;4.05;;;;;;;20.42;45.41;102789.38;5061391;28;20131;-49
2022/05/09 08:13:44;;;;;;;8.95;3.92;;;;;;;20.43;45.00;102785.72;5058810;28;20144;-50
2022/05/09 08:16:12;;;;;;;7.15;4.18;;;;;;;20.44;45.34;102782.06;5068163;28;20385;-50
2022/05/09 08:18:38;;;;;;;9.55;4.28;;;;;;;20.44;45.37;102780.22;5067244;28;20131;-47
2022/05/09 08:21:05;;;;;;;8.65;4.50;;;;;;;20.45;45.17;102787.31;5068175;28;20510;-50
2022/05/09 08:23:32;;;;;;;7.28;4.32;;;;;;;20.46;45.10;102785.47;5066623;28;20842;-51
2022/05/09 08:26:03;;;;;;;9.45;4.28;;;;;;;20.46;45.13;102785.47;5067880;28;20147;-51
2022/05/09 08:28:29;;;;;;;7.57;4.07;;;;;;;20.47;45.35;102781.81;5068996;28;20067;-46
2022/05/09 08:30:57;;;;;;;7.68;3.95;;;;;;;20.48;45.25;102775.44;5066750;28;20068;-46
2022/05/09 08:33:26;;;;;;;6.78;4.00;;;;;;;20.50;44.85;102778.88;5064981;28;20102;-47
2022/05/09 08:35:54;;;;;;;6.63;3.92;;;;;;;20.50;45.44;102781.56;5067370;28;20103;-47
2022/05/09 08:38:21;;;;;;;7.53;3.90;;;;;;;20.52;45.33;102778.78;5067397;28;20047;-49
2022/05/09 08:41:18;;;;;;;8.23;3.97;;;;;;;20.52;44.43;102781.47;5070383;28;20040;-48
2022/05/09 08:43:59;;;;;;;9.05;4.57;;;;;;;20.53;45.29;102775.94;5068643;28;20084;-50
2022/05/09 08:47:05;;;;;;;12.52;4.55;;;;;;;20.53;45.28;102777.78;5066692;28;20053;-48
2022/05/09 08:49:39;;;;;;;6.30;3.65;;;;;;;20.56;45.02;102780.25;5064112;28;20981;-49
2022/05/09 08:52:16;;;;;;;6.60;3.50;;;;;;;20.57;45.56;102771.19;5066324;28;20331;-49
2022/05/09 08:54:43;;;;;;;12.30;4.55;;;;;;;20.58;44.86;102783.66;5068315;28;20040;-51
2022/05/09 08:57:15;;;;;;;6.85;3.50;;;;;;;20.59;45.50;102780.88;5068462;28;20079;-47
2022/05/09 08:59:56;;;;;;;10.55;4.32;;;;;;;20.60;45.62;102782.56;5068700;28;20051;-48
2022/05/09 09:02:34;;;;;;;10.60;4.10;;;;;;;20.62;45.76;102777.94;5067818;28;20373;-50
2022/05/09 09:05:03;;;;;;;8.18;4.13;;;;;;;20.64;45.47;102772.41;5064398;28;20047;-48
2022/05/09 09:07:46;;;;;;;9.25;3.90;;;;;;;20.66;45.50;102774.00;5070709;28;20040;-50
2022/05/09 09:10:22;;;;;;;9.30;4.13;;;;;;;20.67;45.74;102778.41;5066699;28;20055;-47
2022/05/09 09:13:12;;;;;;;7.65;3.92;;;;;;;20.69;45.83;102771.03;5064693;28;20047;-49
2022/05/09 09:15:57;;;;;;;8.35;4.00;;;;;;;20.70;46.17;102753.91;5064197;28;20044;-49
2022/05/09 09:18:44;;;;;;;6.25;4.00;;;;;;;20.74;45.60;102757.19;5066134;28;20052;-46
2022/05/09 09:21:14;;;;;;;6.63;4.35;;;;;;;20.77;45.52;102759.63;5069006;28;20723;-47
2022/05/09 09:24:13;;;;;;;7.22;3.45;;;;;;;20.81;46.26;102754.84;5069470;28;20383;-49
2022/05/09 09:26:48;;;;;;;8.38;4.15;;;;;;;20.85;45.50;102743.69;5066139;28;20395;-48
2022/05/09 09:29:25;;;;;;;5.72;3.90;;;;;;;20.89;45.75;102747.84;5071180;28;20051;-48
2022/05/09 09:32:07;;;;;;;7.38;3.75;;;;;;;20.94;45.81;102736.69;5066453;28;20072;-51
2022/05/09 09:34:34;;;;;;;5.63;3.80;;;;;;;20.99;45.42;102739.03;5072927;28;20040;-48
2022/05/09 09:37:09;;;;;;;7.40;3.83;;;;;;;21.04;45.27;102745.75;5069256;28;20123;-47
2022/05/09 09:39:35;;;;;;;6.05;4.15;;;;;;;21.08;45.69;102743.66;5072913;28;20083;-48
2022/05/09 09:42:02;;;;;;;8.23;3.97;;;;;;;21.13;45.15;102734.19;5064116;28;20439;-47
2022/05/09 09:44:29;;;;;;;8.23;4.30;;;;;;;21.17;45.68;102737.47;5070079;28;20050;-50
2022/05/09 09:47:04;;;;;;;6.35;3.30;;;;;;;21.21;45.57;102733.53;5070685;28;20428;-49
2022/05/09 09:49:33;;;;;;;8.00;3.97;;;;;;;21.27;45.42;102722.25;5065456;28;20056;-47
2022/05/09 09:52:00;;;;;;;6.63;3.78;;;;;;;21.32;45.08;102721.84;5070586;28;20517;-51
2022/05/09 09:54:33;;;;;;;8.50;3.78;;;;;;;21.34;45.00;102723.44;5062853;28;20292;-50
2022/05/09 09:57:28;;;;;;;5.45;3.35;;;;;;;21.39;44.86;102720.41;5070836;28;20076;-48
2022/05/09 09:59:57;;;;;;;5.90;3.40;;;;;;;21.43;44.83;102725.41;5067220;28;20127;-52
2022/05/09 10:02:30;;;;;;;7.05;3.78;;;;;;;21.46;44.96;102721.56;5071422;28;20040;-54
2022/05/09 10:05:11;;;;;;;6.40;3.47;;;;;;;21.48;44.71;102714.22;5069528;28;20135;-47
2022/05/09 10:07:43;;;;;;;6.18;3.50;;;;;;;21.53;44.76;102711.97;5066121;28;20651;-48
2022/05/09 10:10:19;;;;;;;7.32;4.25;;;;;;;21.55;44.69;102701.91;5070929;28;20075;-48
2022/05/09 10:12:57;;;;;;;6.50;3.55;;;;;;;21.59;45.05;102705.19;5069481;28;20124;-48
2022/05/09 10:15:35;;;;;;;7.18;3.80;;;;;;;21.62;44.85;102708.47;5069410;28;20123;-50
2022/05/09 10:18:23;;;;;;;21.83;4.15;;;;;;;21.65;44.78;102712.75;5066766;28;20118;-52
2022/05/09 10:24:47;;;;;;;21.05;5.60;;;;;;;21.68;44.81;102699.84;5065142;28;20036;-51
2022/05/09 10:26:58;;;;;;;21.25;6.82;;;;;;;21.75;44.93;102691.22;5066201;28;20373;-52
2022/05/09 10:29:31;;;;;;;27.35;8.30;;;;;;;21.78;44.91;102685.56;5061706;28;20098;-48
2022/05/09 10:32:03;;;;;;;20.25;7.63;;;;;;;21.80;44.82;102687.13;5061910;28;20045;-52
2022/05/09 10:34:46;;;;;;;23.83;8.05;;;;;;;21.83;44.53;102686.00;5062649;28;20148;-50
2022/05/09 10:37:30;;;;;;;21.25;7.38;;;;;;;21.85;44.76;102681.34;5063834;28;20050;-52
2022/05/09 10:40:23;;;;;;;19.90;7.68;;;;;;;21.88;44.44;102679.22;5062169;28;20178;-51
2022/05/09 10:42:59;;;;;;;20.10;6.95;;;;;;;21.90;44.32;102682.63;5060801;28;20051;-49
2022/05/09 10:45:30;;;;;;;20.92;6.78;;;;;;;21.92;44.34;102671.72;5061860;28;20087;-53
2022/05/09 10:48:06;;;;;;;16.63;6.47;;;;;;;21.93;44.16;102673.41;5061642;28;20142;-49
2022/05/09 10:50:41;;;;;;;17.23;5.70;;;;;;;21.94;43.50;102662.47;5061571;28;20108;-51
2022/05/09 10:53:45;;;;;;;13.93;5.82;;;;;;;21.96;43.48;102661.50;5061633;28;20032;-51
2022/05/09 10:56:41;;;;;;;25.40;5.90;;;;;;;21.98;43.39;102659.50;5061242;28;20075;-50
2022/05/09 10:59:16;;;;;;;18.50;5.68;;;;;;;22.00;43.68;102649.44;5061923;28;20076;-49
2022/05/09 11:01:50;;;;;;;16.73;5.35;;;;;;;22.01;43.50;102652.00;5060385;28;20329;-50
2022/05/09 11:04:18;;;;;;;12.93;5.53;;;;;;;22.03;43.03;102643.75;5060952;28;20049;-50
2022/05/09 11:06:56;;;;;;;16.55;5.25;;;;;;;22.04;42.92;102642.78;5058008;28;20525;-47
2022/05/09 11:10:02;;;;;;;14.95;5.18;;;;;;;22.04;42.67;102643.63;5058797;28;20064;-51
2022/05/09 11:12:44;;;;;;;15.35;4.93;;;;;;;22.07;42.88;102645.19;5038505;28;20092;-48
2022/05/09 11:15:27;;;;;;;12.70;4.75;;;;;;;22.09;43.23;102649.47;5068930;28;20079;-50
2022/05/09 11:18:27;;;;;;;14.52;4.82;;;;;;;22.11;43.41;102647.50;5070620;28;20052;-48
2022/05/09 11:21:16;;;;;;;14.63;5.68;;;;;;;22.13;43.17;102644.69;5016432;28;20048;-50
2022/05/09 11:24:09;;;;;;;17.85;5.78;;;;;;;22.14;43.34;102636.44;5069644;28;20178;-48
2022/05/09 11:26:49;;;;;;;;;;;;;;;22.16;43.16;102634.47;5070951;28;20140;-47
2022/05/09 11:29:16;;;;;;;10.15;4.65;;;;;;;22.21;43.26;102625.94;5071185;28;19927;-51
2022/05/09 11:32:10;;;;;;;13.75;4.85;;;;;;;22.21;43.38;102627.78;5068864;28;20127;-49
2022/05/09 11:34:52;;;;;;;13.10;4.53;;;;;;;22.22;43.09;102630.34;5067619;28;20072;-49
2022/05/09 11:37:46;;;;;;;16.65;5.55;;;;;;;22.23;43.22;102618.56;5070274;28;20135;-50
2022/05/09 11:40:27;;;;;;;11.48;4.60;;;;;;;22.26;43.09;102628.22;5070738;28;20432;-52
2022/05/09 11:46:18;;;;;;;7.95;4.05;;;;;;;22.26;43.28;102623.66;5068249;28;20419;-48
2022/05/09 11:49:25;;;;;;;10.15;4.47;;;;;;;22.29;43.27;102628.81;5058179;28;20158;-51
2022/05/09 11:51:55;;;;;;;11.32;4.72;;;;;;;22.31;43.06;102616.03;5050634;28;20044;-50